sensor_id;sensor_type;location;lat;lon;timestamp;P1;durP1;ratioP1;P2;durP2;ratioP2
18387;SDS011;9320;50.256;19.026;2023-02-15T00:01:57;27.80;;;18.27;;
18387;SDS011;9320;50.256;19.026;2023-02-15T00:04:27;25.20;;;16.43;;
18387;SDS011;9320;50.256;19.026;2023-02-15T00:07:13;26.07;;;17.30;;
18387;SDS011;9320;50.256;19.026;2023-02-15T00:09:42;28.10;;;17.60;;
18387;SDS011;9320;50.256;19.026;2023-02-15T00:12:12;28.17;;;17.93;;
18387;SDS011;9320;50.256;19.026;2023-02-15T00:14:40;26.50;;;16.43;;
18387;SDS011;9320;50.256;19.026;2023-02-15T00:17:08;27.77;;;17.90;;
18387;SDS011;9320;50.256;19.026;2023-02-15T00:19:37;28.67;;;18.90;;
18387;SDS011;9320;50.256;19.026;2023-02-15T00:22:06;31.57;;;20.37;;
18387;SDS011;9320;50.256;19.026;2023-02-15T00:24:34;29.57;;;19.23;;
18387;SDS011;9320;50.256;19.026;2023-02-15T00:27:02;32.90;;;20.20;;
18387;SDS011;9320;50.256;19.026;2023-02-15T00:29:30;33.27;;;20.27;;
18387;SDS011;9320;50.256;19.026;2023-02-15T00:31:58;30.33;;;18.60;;
18387;SDS011;9320;50.256;19.026;2023-02-15T00:34:27;28.47;;;16.97;;
18387;SDS011;9320;50.256;19.026;2023-02-15T00:36:56;24.60;;;15.93;;
18387;SDS011;9320;50.256;19.026;2023-02-15T00:39:24;22.47;;;15.33;;
18387;SDS011;9320;50.256;19.026;2023-02-15T00:41:53;23.33;;;15.83;;
18387;SDS011;9320;50.256;19.026;2023-02-15T00:44:21;25.67;;;15.83;;
18387;SDS011;9320;50.256;19.026;2023-02-15T00:46:49;25.13;;;15.23;;
18387;SDS011;9320;50.256;19.026;2023-02-15T00:49:17;24.63;;;15.57;;
18387;SDS011;9320;50.256;19.026;2023-02-15T00:51:45;25.77;;;16.60;;
18387;SDS011;9320;50.256;19.026;2023-02-15T00:54:14;25.17;;;16.17;;
18387;SDS011;9320;50.256;19.026;2023-02-15T00:56:42;24.57;;;15.53;;
18387;SDS011;9320;50.256;19.026;2023-02-15T00:59:10;23.70;;;14.83;;
18387;SDS011;9320;50.256;19.026;2023-02-15T01:01:38;26.03;;;15.73;;
18387;SDS011;9320;50.256;19.026;2023-02-15T01:04:06;23.53;;;15.90;;
18387;SDS011;9320;50.256;19.026;2023-02-15T01:06:34;23.90;;;16.03;;
18387;SDS011;9320;50.256;19.026;2023-02-15T01:09:02;24.63;;;16.60;;
18387;SDS011;9320;50.256;19.026;2023-02-15T01:11:32;30.73;;;17.47;;
18387;SDS011;9320;50.256;19.026;2023-02-15T01:14:00;28.80;;;18.50;;
18387;SDS011;9320;50.256;19.026;2023-02-15T01:16:29;32.43;;;19.17;;
18387;SDS011;9320;50.256;19.026;2023-02-15T01:18:57;34.63;;;20.10;;
18387;SDS011;9320;50.256;19.026;2023-02-15T01:21:25;31.30;;;19.93;;
18387;SDS011;9320;50.256;19.026;2023-02-15T01:23:53;30.93;;;19.23;;
18387;SDS011;9320;50.256;19.026;2023-02-15T01:26:21;35.70;;;20.07;;
18387;SDS011;9320;50.256;19.026;2023-02-15T01:28:51;29.13;;;17.87;;
18387;SDS011;9320;50.256;19.026;2023-02-15T01:31:19;26.70;;;17.43;;
18387;SDS011;9320;50.256;19.026;2023-02-15T01:33:48;34.03;;;18.70;;
18387;SDS011;9320;50.256;19.026;2023-02-15T01:36:17;30.27;;;18.00;;
18387;SDS011;9320;50.256;19.026;2023-02-15T01:38:45;29.90;;;19.20;;
18387;SDS011;9320;50.256;19.026;2023-02-15T01:41:13;31.70;;;19.07;;
18387;SDS011;9320;50.256;19.026;2023-02-15T01:43:51;30.07;;;18.87;;
18387;SDS011;9320;50.256;19.026;2023-02-15T01:46:22;30.40;;;19.00;;
18387;SDS011;9320;50.256;19.026;2023-02-15T01:48:54;32.70;;;19.03;;
18387;SDS011;9320;50.256;19.026;2023-02-15T01:51:27;33.70;;;20.70;;
18387;SDS011;9320;50.256;19.026;2023-02-15T01:53:59;34.87;;;19.87;;
18387;SDS011;9320;50.256;19.026;2023-02-15T01:56:31;33.60;;;20.53;;
18387;SDS011;9320;50.256;19.026;2023-02-15T01:59:04;38.87;;;20.90;;
18387;SDS011;9320;50.256;19.026;2023-02-15T02:01:36;34.83;;;21.03;;
18387;SDS011;9320;50.256;19.026;2023-02-15T02:04:07;39.23;;;21.70;;
18387;SDS011;9320;50.256;19.026;2023-02-15T02:06:42;39.40;;;22.17;;
18387;SDS011;9320;50.256;19.026;2023-02-15T02:09:13;36.17;;;21.90;;
18387;SDS011;9320;50.256;19.026;2023-02-15T02:11:42;41.37;;;23.90;;
18387;SDS011;9320;50.256;19.026;2023-02-15T02:14:15;38.37;;;22.43;;
18387;SDS011;9320;50.256;19.026;2023-02-15T02:16:46;38.97;;;22.80;;
18387;SDS011;9320;50.256;19.026;2023-02-15T02:19:27;41.33;;;22.70;;
18387;SDS011;9320;50.256;19.026;2023-02-15T02:25:23;40.13;;;22.90;;
18387;SDS011;9320;50.256;19.026;2023-02-15T02:28:22;38.70;;;22.47;;
18387;SDS011;9320;50.256;19.026;2023-02-15T02:31:22;35.00;;;21.40;;
18387;SDS011;9320;50.256;19.026;2023-02-15T02:34:08;35.87;;;21.60;;
18387;SDS011;9320;50.256;19.026;2023-02-15T02:36:44;38.93;;;22.13;;
18387;SDS011;9320;50.256;19.026;2023-02-15T02:39:22;40.17;;;21.93;;
18387;SDS011;9320;50.256;19.026;2023-02-15T02:41:58;36.23;;;22.00;;
18387;SDS011;9320;50.256;19.026;2023-02-15T02:44:34;42.60;;;21.47;;
18387;SDS011;9320;50.256;19.026;2023-02-15T02:47:11;36.23;;;22.33;;
18387;SDS011;9320;50.256;19.026;2023-02-15T02:49:44;39.23;;;21.70;;
18387;SDS011;9320;50.256;19.026;2023-02-15T02:55:03;38.70;;;22.07;;
18387;SDS011;9320;50.256;19.026;2023-02-15T02:57:34;39.00;;;22.00;;
18387;SDS011;9320;50.256;19.026;2023-02-15T03:00:08;40.23;;;22.93;;
18387;SDS011;9320;50.256;19.026;2023-02-15T03:02:38;36.07;;;20.87;;
18387;SDS011;9320;50.256;19.026;2023-02-15T03:05:11;35.53;;;22.13;;
18387;SDS011;9320;50.256;19.026;2023-02-15T03:07:43;41.23;;;22.43;;
18387;SDS011;9320;50.256;19.026;2023-02-15T03:10:16;38.00;;;21.53;;
18387;SDS011;9320;50.256;19.026;2023-02-15T03:12:47;35.70;;;20.90;;
18387;SDS011;9320;50.256;19.026;2023-02-15T03:15:17;32.23;;;20.10;;
18387;SDS011;9320;50.256;19.026;2023-02-15T03:17:47;31.83;;;20.90;;
18387;SDS011;9320;50.256;19.026;2023-02-15T03:20:31;36.40;;;20.10;;
18387;SDS011;9320;50.256;19.026;2023-02-15T03:23:03;40.20;;;21.30;;
18387;SDS011;9320;50.256;19.026;2023-02-15T03:25:34;37.37;;;22.10;;
18387;SDS011;9320;50.256;19.026;2023-02-15T03:28:07;37.30;;;22.53;;
18387;SDS011;9320;50.256;19.026;2023-02-15T03:30:37;39.40;;;22.83;;
18387;SDS011;9320;50.256;19.026;2023-02-15T03:33:09;36.50;;;22.37;;
18387;SDS011;9320;50.256;19.026;2023-02-15T03:35:43;42.90;;;23.07;;
18387;SDS011;9320;50.256;19.026;2023-02-15T03:38:17;40.27;;;20.97;;
18387;SDS011;9320;50.256;19.026;2023-02-15T03:40:52;37.63;;;21.03;;
18387;SDS011;9320;50.256;19.026;2023-02-15T03:43:44;38.37;;;22.43;;
18387;SDS011;9320;50.256;19.026;2023-02-15T03:46:17;37.50;;;22.10;;
18387;SDS011;9320;50.256;19.026;2023-02-15T03:48:52;36.10;;;21.77;;
18387;SDS011;9320;50.256;19.026;2023-02-15T03:51:24;36.00;;;21.27;;
18387;SDS011;9320;50.256;19.026;2023-02-15T03:54:00;33.03;;;19.53;;
18387;SDS011;9320;50.256;19.026;2023-02-15T03:59:00;37.50;;;21.43;;
18387;SDS011;9320;50.256;19.026;2023-02-15T04:01:47;41.93;;;22.97;;
18387;SDS011;9320;50.256;19.026;2023-02-15T04:04:31;41.50;;;24.20;;
18387;SDS011;9320;50.256;19.026;2023-02-15T04:07:03;39.70;;;22.27;;
18387;SDS011;9320;50.256;19.026;2023-02-15T04:09:32;47.20;;;24.00;;
18387;SDS011;9320;50.256;19.026;2023-02-15T04:12:18;38.23;;;22.57;;
18387;SDS011;9320;50.256;19.026;2023-02-15T04:14:46;41.13;;;22.43;;
18387;SDS011;9320;50.256;19.026;2023-02-15T04:17:31;46.13;;;23.50;;
18387;SDS011;9320;50.256;19.026;2023-02-15T04:19:59;40.87;;;21.37;;
18387;SDS011;9320;50.256;19.026;2023-02-15T04:22:46;41.20;;;22.33;;
18387;SDS011;9320;50.256;19.026;2023-02-15T04:25:31;40.00;;;21.40;;
18387;SDS011;9320;50.256;19.026;2023-02-15T04:27:59;39.47;;;21.20;;
18387;SDS011;9320;50.256;19.026;2023-02-15T04:30:27;43.20;;;22.70;;
18387;SDS011;9320;50.256;19.026;2023-02-15T04:32:55;39.53;;;22.03;;
18387;SDS011;9320;50.256;19.026;2023-02-15T04:35:23;42.70;;;22.73;;
18387;SDS011;9320;50.256;19.026;2023-02-15T04:37:53;45.93;;;23.50;;
18387;SDS011;9320;50.256;19.026;2023-02-15T04:40:22;39.73;;;22.47;;
18387;SDS011;9320;50.256;19.026;2023-02-15T04:42:50;43.47;;;22.67;;
18387;SDS011;9320;50.256;19.026;2023-02-15T04:45:18;41.77;;;22.47;;
18387;SDS011;9320;50.256;19.026;2023-02-15T04:47:46;39.60;;;21.67;;
18387;SDS011;9320;50.256;19.026;2023-02-15T04:50:14;39.37;;;20.87;;
18387;SDS011;9320;50.256;19.026;2023-02-15T04:52:42;40.70;;;21.13;;
18387;SDS011;9320;50.256;19.026;2023-02-15T04:55:11;41.77;;;21.90;;
18387;SDS011;9320;50.256;19.026;2023-02-15T04:57:40;43.70;;;22.40;;
18387;SDS011;9320;50.256;19.026;2023-02-15T05:00:08;40.00;;;22.70;;
18387;SDS011;9320;50.256;19.026;2023-02-15T05:02:37;44.20;;;23.33;;
18387;SDS011;9320;50.256;19.026;2023-02-15T05:05:05;43.40;;;21.90;;
18387;SDS011;9320;50.256;19.026;2023-02-15T05:07:35;43.90;;;23.60;;
18387;SDS011;9320;50.256;19.026;2023-02-15T05:10:03;46.83;;;23.20;;
18387;SDS011;9320;50.256;19.026;2023-02-15T05:12:34;46.23;;;24.10;;
18387;SDS011;9320;50.256;19.026;2023-02-15T05:15:02;44.03;;;23.63;;
18387;SDS011;9320;50.256;19.026;2023-02-15T05:17:30;41.53;;;22.20;;
18387;SDS011;9320;50.256;19.026;2023-02-15T05:19:58;48.57;;;23.53;;
18387;SDS011;9320;50.256;19.026;2023-02-15T05:22:26;46.97;;;24.13;;
18387;SDS011;9320;50.256;19.026;2023-02-15T05:24:54;47.53;;;24.40;;
18387;SDS011;9320;50.256;19.026;2023-02-15T05:27:40;46.60;;;24.90;;
18387;SDS011;9320;50.256;19.026;2023-02-15T05:30:26;50.57;;;25.60;;
18387;SDS011;9320;50.256;19.026;2023-02-15T05:32:54;51.83;;;25.90;;
18387;SDS011;9320;50.256;19.026;2023-02-15T05:35:22;46.87;;;25.63;;
18387;SDS011;9320;50.256;19.026;2023-02-15T05:37:50;44.33;;;24.13;;
18387;SDS011;9320;50.256;19.026;2023-02-15T05:40:18;45.73;;;24.43;;
18387;SDS011;9320;50.256;19.026;2023-02-15T05:42:47;42.10;;;23.30;;
18387;SDS011;9320;50.256;19.026;2023-02-15T05:45:16;47.90;;;24.70;;
18387;SDS011;9320;50.256;19.026;2023-02-15T05:47:44;48.27;;;24.93;;
18387;SDS011;9320;50.256;19.026;2023-02-15T05:50:12;48.70;;;24.87;;
18387;SDS011;9320;50.256;19.026;2023-02-15T05:52:40;49.43;;;25.33;;
18387;SDS011;9320;50.256;19.026;2023-02-15T05:55:08;51.67;;;25.17;;
18387;SDS011;9320;50.256;19.026;2023-02-15T05:57:36;52.23;;;25.73;;
18387;SDS011;9320;50.256;19.026;2023-02-15T06:00:07;47.70;;;25.30;;
18387;SDS011;9320;50.256;19.026;2023-02-15T06:02:36;47.43;;;25.07;;
18387;SDS011;9320;50.256;19.026;2023-02-15T06:05:05;44.10;;;23.77;;
18387;SDS011;9320;50.256;19.026;2023-02-15T06:07:34;47.80;;;24.73;;
18387;SDS011;9320;50.256;19.026;2023-02-15T06:10:03;46.87;;;24.17;;
18387;SDS011;9320;50.256;19.026;2023-02-15T06:12:32;46.30;;;24.00;;
18387;SDS011;9320;50.256;19.026;2023-02-15T06:15:00;48.77;;;24.63;;
18387;SDS011;9320;50.256;19.026;2023-02-15T06:17:29;46.10;;;24.10;;
18387;SDS011;9320;50.256;19.026;2023-02-15T06:19:57;44.00;;;24.57;;
18387;SDS011;9320;50.256;19.026;2023-02-15T06:22:25;45.17;;;23.53;;
18387;SDS011;9320;50.256;19.026;2023-02-15T06:24:53;47.27;;;24.70;;
18387;SDS011;9320;50.256;19.026;2023-02-15T06:27:21;48.60;;;24.63;;
18387;SDS011;9320;50.256;19.026;2023-02-15T06:29:49;43.20;;;24.93;;
18387;SDS011;9320;50.256;19.026;2023-02-15T06:32:17;43.20;;;24.47;;
18387;SDS011;9320;50.256;19.026;2023-02-15T06:34:46;40.30;;;23.67;;
18387;SDS011;9320;50.256;19.026;2023-02-15T06:37:15;44.30;;;24.50;;
18387;SDS011;9320;50.256;19.026;2023-02-15T06:39:43;47.57;;;25.40;;
18387;SDS011;9320;50.256;19.026;2023-02-15T06:42:11;49.37;;;25.67;;
18387;SDS011;9320;50.256;19.026;2023-02-15T06:44:39;46.73;;;26.27;;
18387;SDS011;9320;50.256;19.026;2023-02-15T06:47:07;47.73;;;26.23;;
18387;SDS011;9320;50.256;19.026;2023-02-15T06:49:35;43.33;;;24.90;;
18387;SDS011;9320;50.256;19.026;2023-02-15T06:52:05;43.97;;;25.40;;
18387;SDS011;9320;50.256;19.026;2023-02-15T06:54:33;46.13;;;25.33;;
18387;SDS011;9320;50.256;19.026;2023-02-15T06:57:01;45.73;;;26.00;;
18387;SDS011;9320;50.256;19.026;2023-02-15T06:59:29;54.13;;;27.53;;
18387;SDS011;9320;50.256;19.026;2023-02-15T07:01:57;48.33;;;25.83;;
18387;SDS011;9320;50.256;19.026;2023-02-15T07:04:25;46.90;;;26.37;;
18387;SDS011;9320;50.256;19.026;2023-02-15T07:06:55;46.20;;;25.37;;
18387;SDS011;9320;50.256;19.026;2023-02-15T07:09:24;46.67;;;26.10;;
18387;SDS011;9320;50.256;19.026;2023-02-15T07:11:52;47.77;;;25.90;;
18387;SDS011;9320;50.256;19.026;2023-02-15T07:14:38;47.60;;;25.97;;
18387;SDS011;9320;50.256;19.026;2023-02-15T07:17:07;42.97;;;25.47;;
18387;SDS011;9320;50.256;19.026;2023-02-15T07:19:55;47.20;;;25.87;;
18387;SDS011;9320;50.256;19.026;2023-02-15T07:22:23;48.10;;;26.37;;
18387;SDS011;9320;50.256;19.026;2023-02-15T07:24:53;45.97;;;25.63;;
18387;SDS011;9320;50.256;19.026;2023-02-15T07:27:22;49.83;;;25.53;;
18387;SDS011;9320;50.256;19.026;2023-02-15T07:29:51;50.93;;;26.27;;
18387;SDS011;9320;50.256;19.026;2023-02-15T07:32:19;45.13;;;26.37;;
18387;SDS011;9320;50.256;19.026;2023-02-15T07:34:47;51.47;;;27.07;;
18387;SDS011;9320;50.256;19.026;2023-02-15T07:37:16;45.07;;;25.33;;
18387;SDS011;9320;50.256;19.026;2023-02-15T07:39:44;49.20;;;24.83;;
18387;SDS011;9320;50.256;19.026;2023-02-15T07:42:14;42.53;;;25.57;;
18387;SDS011;9320;50.256;19.026;2023-02-15T07:44:44;45.83;;;25.37;;
18387;SDS011;9320;50.256;19.026;2023-02-15T07:47:12;47.13;;;25.70;;
18387;SDS011;9320;50.256;19.026;2023-02-15T07:49:40;47.33;;;27.03;;
18387;SDS011;9320;50.256;19.026;2023-02-15T07:52:08;47.10;;;26.83;;
18387;SDS011;9320;50.256;19.026;2023-02-15T07:54:36;50.37;;;28.37;;
18387;SDS011;9320;50.256;19.026;2023-02-15T07:57:04;57.07;;;27.07;;
18387;SDS011;9320;50.256;19.026;2023-02-15T07:59:34;66.27;;;29.17;;
18387;SDS011;9320;50.256;19.026;2023-02-15T08:02:02;53.93;;;26.87;;
18387;SDS011;9320;50.256;19.026;2023-02-15T08:04:30;45.43;;;26.50;;
18387;SDS011;9320;50.256;19.026;2023-02-15T08:06:58;45.23;;;26.37;;
18387;SDS011;9320;50.256;19.026;2023-02-15T08:09:26;50.03;;;27.97;;
18387;SDS011;9320;50.256;19.026;2023-02-15T08:11:54;48.63;;;27.73;;
18387;SDS011;9320;50.256;19.026;2023-02-15T08:14:22;50.23;;;28.17;;
18387;SDS011;9320;50.256;19.026;2023-02-15T08:16:52;47.20;;;27.87;;
18387;SDS011;9320;50.256;19.026;2023-02-15T08:19:23;52.67;;;28.03;;
18387;SDS011;9320;50.256;19.026;2023-02-15T08:21:53;48.53;;;28.83;;
18387;SDS011;9320;50.256;19.026;2023-02-15T08:24:24;54.50;;;29.40;;
18387;SDS011;9320;50.256;19.026;2023-02-15T08:26:53;54.80;;;29.87;;
18387;SDS011;9320;50.256;19.026;2023-02-15T08:29:22;52.13;;;28.13;;
18387;SDS011;9320;50.256;19.026;2023-02-15T08:31:53;50.13;;;28.07;;
18387;SDS011;9320;50.256;19.026;2023-02-15T08:34:25;54.50;;;27.80;;
18387;SDS011;9320;50.256;19.026;2023-02-15T08:36:53;54.00;;;28.70;;
18387;SDS011;9320;50.256;19.026;2023-02-15T08:39:21;47.03;;;27.23;;
18387;SDS011;9320;50.256;19.026;2023-02-15T08:41:50;50.07;;;28.60;;
18387;SDS011;9320;50.256;19.026;2023-02-15T08:44:18;47.00;;;27.57;;
18387;SDS011;9320;50.256;19.026;2023-02-15T08:46:48;47.47;;;27.67;;
18387;SDS011;9320;50.256;19.026;2023-02-15T08:49:18;51.77;;;29.83;;
18387;SDS011;9320;50.256;19.026;2023-02-15T08:51:48;51.77;;;27.83;;
18387;SDS011;9320;50.256;19.026;2023-02-15T08:54:17;51.77;;;30.90;;
18387;SDS011;9320;50.256;19.026;2023-02-15T08:56:47;50.20;;;28.33;;
18387;SDS011;9320;50.256;19.026;2023-02-15T08:59:16;48.33;;;26.93;;
18387;SDS011;9320;50.256;19.026;2023-02-15T09:01:46;44.40;;;27.00;;
18387;SDS011;9320;50.256;19.026;2023-02-15T09:04:15;45.73;;;27.57;;
18387;SDS011;9320;50.256;19.026;2023-02-15T09:06:45;48.93;;;28.23;;
18387;SDS011;9320;50.256;19.026;2023-02-15T09:09:15;46.50;;;26.80;;
18387;SDS011;9320;50.256;19.026;2023-02-15T09:11:44;53.77;;;27.17;;
18387;SDS011;9320;50.256;19.026;2023-02-15T09:14:15;55.17;;;28.13;;
18387;SDS011;9320;50.256;19.026;2023-02-15T09:16:46;48.90;;;28.90;;
18387;SDS011;9320;50.256;19.026;2023-02-15T09:19:19;52.53;;;28.27;;
18387;SDS011;9320;50.256;19.026;2023-02-15T09:21:49;45.70;;;26.80;;
18387;SDS011;9320;50.256;19.026;2023-02-15T09:24:18;49.07;;;27.97;;
18387;SDS011;9320;50.256;19.026;2023-02-15T09:26:46;53.10;;;29.43;;
18387;SDS011;9320;50.256;19.026;2023-02-15T09:29:15;44.30;;;25.80;;
18387;SDS011;9320;50.256;19.026;2023-02-15T09:31:45;46.20;;;25.83;;
18387;SDS011;9320;50.256;19.026;2023-02-15T09:34:15;47.80;;;27.63;;
18387;SDS011;9320;50.256;19.026;2023-02-15T09:36:46;43.67;;;26.20;;
18387;SDS011;9320;50.256;19.026;2023-02-15T09:39:15;44.07;;;25.70;;
18387;SDS011;9320;50.256;19.026;2023-02-15T09:41:56;41.37;;;25.27;;
18387;SDS011;9320;50.256;19.026;2023-02-15T09:44:53;49.77;;;26.20;;
18387;SDS011;9320;50.256;19.026;2023-02-15T09:47:43;46.03;;;25.87;;
18387;SDS011;9320;50.256;19.026;2023-02-15T09:50:33;39.93;;;24.77;;
18387;SDS011;9320;50.256;19.026;2023-02-15T09:53:27;41.10;;;24.37;;
18387;SDS011;9320;50.256;19.026;2023-02-15T09:56:05;49.23;;;25.00;;
18387;SDS011;9320;50.256;19.026;2023-02-15T09:58:42;42.10;;;24.23;;
18387;SDS011;9320;50.256;19.026;2023-02-15T10:01:20;41.17;;;23.30;;
18387;SDS011;9320;50.256;19.026;2023-02-15T10:04:04;42.33;;;24.53;;
18387;SDS011;9320;50.256;19.026;2023-02-15T10:06:46;41.17;;;24.30;;
18387;SDS011;9320;50.256;19.026;2023-02-15T10:09:27;43.77;;;24.87;;
18387;SDS011;9320;50.256;19.026;2023-02-15T10:12:18;38.47;;;23.20;;
18387;SDS011;9320;50.256;19.026;2023-02-15T10:17:53;43.37;;;23.40;;
18387;SDS011;9320;50.256;19.026;2023-02-15T10:20:38;40.73;;;23.77;;
18387;SDS011;9320;50.256;19.026;2023-02-15T10:23:18;39.90;;;22.20;;
18387;SDS011;9320;50.256;19.026;2023-02-15T10:26:04;43.60;;;25.33;;
18387;SDS011;9320;50.256;19.026;2023-02-15T10:28:42;38.67;;;22.13;;
18387;SDS011;9320;50.256;19.026;2023-02-15T10:31:17;40.73;;;22.07;;
18387;SDS011;9320;50.256;19.026;2023-02-15T10:34:10;34.60;;;20.93;;
18387;SDS011;9320;50.256;19.026;2023-02-15T10:39:41;35.73;;;20.90;;
18387;SDS011;9320;50.256;19.026;2023-02-15T10:42:23;36.90;;;21.33;;
18387;SDS011;9320;50.256;19.026;2023-02-15T10:45:06;31.33;;;20.10;;
18387;SDS011;9320;50.256;19.026;2023-02-15T10:47:44;34.70;;;20.10;;
18387;SDS011;9320;50.256;19.026;2023-02-15T10:50:27;33.97;;;20.33;;
18387;SDS011;9320;50.256;19.026;2023-02-15T10:53:11;34.80;;;20.47;;
18387;SDS011;9320;50.256;19.026;2023-02-15T10:55:51;34.10;;;19.80;;
18387;SDS011;9320;50.256;19.026;2023-02-15T10:58:31;30.97;;;18.70;;
18387;SDS011;9320;50.256;19.026;2023-02-15T11:01:13;29.03;;;18.07;;
18387;SDS011;9320;50.256;19.026;2023-02-15T11:04:04;28.27;;;17.97;;
18387;SDS011;9320;50.256;19.026;2023-02-15T11:06:56;27.00;;;17.40;;
18387;SDS011;9320;50.256;19.026;2023-02-15T11:09:32;26.57;;;17.73;;
18387;SDS011;9320;50.256;19.026;2023-02-15T11:12:07;30.67;;;19.37;;
18387;SDS011;9320;50.256;19.026;2023-02-15T11:14:43;28.63;;;19.17;;
18387;SDS011;9320;50.256;19.026;2023-02-15T11:17:16;38.57;;;20.50;;
18387;SDS011;9320;50.256;19.026;2023-02-15T11:19:53;31.93;;;20.10;;
18387;SDS011;9320;50.256;19.026;2023-02-15T11:22:26;26.90;;;18.00;;
18387;SDS011;9320;50.256;19.026;2023-02-15T11:24:58;29.60;;;18.60;;
18387;SDS011;9320;50.256;19.026;2023-02-15T11:27:30;28.60;;;18.60;;
18387;SDS011;9320;50.256;19.026;2023-02-15T11:30:02;28.13;;;17.63;;
18387;SDS011;9320;50.256;19.026;2023-02-15T11:32:37;30.23;;;17.97;;
18387;SDS011;9320;50.256;19.026;2023-02-15T11:35:10;30.50;;;17.90;;
18387;SDS011;9320;50.256;19.026;2023-02-15T11:37:51;36.23;;;20.03;;
18387;SDS011;9320;50.256;19.026;2023-02-15T11:40:25;33.67;;;18.13;;
18387;SDS011;9320;50.256;19.026;2023-02-15T11:42:56;34.67;;;18.33;;
18387;SDS011;9320;50.256;19.026;2023-02-15T11:45:31;26.90;;;17.17;;
18387;SDS011;9320;50.256;19.026;2023-02-15T11:48:00;29.30;;;17.37;;
18387;SDS011;9320;50.256;19.026;2023-02-15T11:50:36;35.70;;;19.10;;
18387;SDS011;9320;50.256;19.026;2023-02-15T11:53:06;34.83;;;19.43;;
18387;SDS011;9320;50.256;19.026;2023-02-15T11:55:41;27.67;;;17.70;;
18387;SDS011;9320;50.256;19.026;2023-02-15T11:58:12;30.03;;;18.77;;
18387;SDS011;9320;50.256;19.026;2023-02-15T12:00:52;32.70;;;18.90;;
18387;SDS011;9320;50.256;19.026;2023-02-15T12:03:29;31.30;;;17.93;;
18387;SDS011;9320;50.256;19.026;2023-02-15T12:06:13;29.40;;;18.17;;
18387;SDS011;9320;50.256;19.026;2023-02-15T12:08:48;31.83;;;18.73;;
18387;SDS011;9320;50.256;19.026;2023-02-15T12:11:26;32.77;;;19.27;;
18387;SDS011;9320;50.256;19.026;2023-02-15T12:14:01;33.17;;;19.83;;
18387;SDS011;9320;50.256;19.026;2023-02-15T12:16:34;31.23;;;18.30;;
18387;SDS011;9320;50.256;19.026;2023-02-15T12:19:13;27.53;;;17.13;;
18387;SDS011;9320;50.256;19.026;2023-02-15T12:21:56;29.73;;;18.00;;
18387;SDS011;9320;50.256;19.026;2023-02-15T12:24:27;30.00;;;18.60;;
18387;SDS011;9320;50.256;19.026;2023-02-15T12:26:59;34.83;;;19.23;;
18387;SDS011;9320;50.256;19.026;2023-02-15T12:29:31;31.30;;;18.57;;
18387;SDS011;9320;50.256;19.026;2023-02-15T12:32:10;28.00;;;17.00;;
18387;SDS011;9320;50.256;19.026;2023-02-15T12:34:44;36.37;;;20.10;;
18387;SDS011;9320;50.256;19.026;2023-02-15T12:37:15;32.50;;;18.50;;
18387;SDS011;9320;50.256;19.026;2023-02-15T12:39:54;32.93;;;18.73;;
18387;SDS011;9320;50.256;19.026;2023-02-15T12:42:25;31.97;;;19.73;;
18387;SDS011;9320;50.256;19.026;2023-02-15T12:44:56;30.57;;;18.50;;
18387;SDS011;9320;50.256;19.026;2023-02-15T12:47:28;31.87;;;19.87;;
18387;SDS011;9320;50.256;19.026;2023-02-15T12:50:05;31.57;;;18.63;;
18387;SDS011;9320;50.256;19.026;2023-02-15T12:52:44;28.60;;;17.00;;
18387;SDS011;9320;50.256;19.026;2023-02-15T12:55:18;29.60;;;18.70;;
18387;SDS011;9320;50.256;19.026;2023-02-15T12:57:58;35.20;;;18.57;;
18387;SDS011;9320;50.256;19.026;2023-02-15T13:00:33;30.07;;;18.17;;
18387;SDS011;9320;50.256;19.026;2023-02-15T13:03:03;33.00;;;18.53;;
18387;SDS011;9320;50.256;19.026;2023-02-15T13:05:32;31.23;;;18.40;;
18387;SDS011;9320;50.256;19.026;2023-02-15T13:08:10;29.60;;;18.20;;
18387;SDS011;9320;50.256;19.026;2023-02-15T13:10:42;30.87;;;18.30;;
18387;SDS011;9320;50.256;19.026;2023-02-15T13:13:22;30.47;;;18.47;;
18387;SDS011;9320;50.256;19.026;2023-02-15T13:15:53;29.73;;;18.13;;
18387;SDS011;9320;50.256;19.026;2023-02-15T13:18:29;29.87;;;17.63;;
18387;SDS011;9320;50.256;19.026;2023-02-15T13:21:00;37.00;;;20.03;;
18387;SDS011;9320;50.256;19.026;2023-02-15T13:23:33;29.83;;;18.17;;
18387;SDS011;9320;50.256;19.026;2023-02-15T13:26:02;29.00;;;17.53;;
18387;SDS011;9320;50.256;19.026;2023-02-15T13:28:34;29.83;;;18.30;;
18387;SDS011;9320;50.256;19.026;2023-02-15T13:31:11;29.57;;;17.83;;
18387;SDS011;9320;50.256;19.026;2023-02-15T13:33:44;34.53;;;18.17;;
18387;SDS011;9320;50.256;19.026;2023-02-15T13:36:17;34.40;;;18.77;;
18387;SDS011;9320;50.256;19.026;2023-02-15T13:38:57;33.50;;;19.87;;
18387;SDS011;9320;50.256;19.026;2023-02-15T13:41:32;45.93;;;19.70;;
18387;SDS011;9320;50.256;19.026;2023-02-15T13:44:08;36.27;;;19.27;;
18387;SDS011;9320;50.256;19.026;2023-02-15T13:46:47;35.03;;;18.93;;
18387;SDS011;9320;50.256;19.026;2023-02-15T13:49:31;35.40;;;19.70;;
18387;SDS011;9320;50.256;19.026;2023-02-15T13:52:13;38.17;;;18.83;;
18387;SDS011;9320;50.256;19.026;2023-02-15T13:54:50;34.37;;;19.67;;
18387;SDS011;9320;50.256;19.026;2023-02-15T13:57:33;30.93;;;18.10;;
18387;SDS011;9320;50.256;19.026;2023-02-15T14:00:12;32.63;;;18.70;;
18387;SDS011;9320;50.256;19.026;2023-02-15T14:05:59;30.97;;;17.87;;
18387;SDS011;9320;50.256;19.026;2023-02-15T14:08:44;29.27;;;18.30;;
18387;SDS011;9320;50.256;19.026;2023-02-15T14:11:23;32.00;;;18.87;;
18387;SDS011;9320;50.256;19.026;2023-02-15T14:14:04;30.33;;;17.83;;
18387;SDS011;9320;50.256;19.026;2023-02-15T14:16:50;28.73;;;18.40;;
18387;SDS011;9320;50.256;19.026;2023-02-15T14:19:35;29.07;;;17.40;;
18387;SDS011;9320;50.256;19.026;2023-02-15T14:22:12;34.27;;;19.67;;
18387;SDS011;9320;50.256;19.026;2023-02-15T14:24:51;37.03;;;20.87;;
18387;SDS011;9320;50.256;19.026;2023-02-15T14:27:38;32.13;;;19.37;;
18387;SDS011;9320;50.256;19.026;2023-02-15T14:30:14;36.87;;;19.87;;
18387;SDS011;9320;50.256;19.026;2023-02-15T14:32:46;36.13;;;19.73;;
18387;SDS011;9320;50.256;19.026;2023-02-15T14:35:17;33.23;;;18.37;;
18387;SDS011;9320;50.256;19.026;2023-02-15T14:37:50;33.20;;;19.43;;
18387;SDS011;9320;50.256;19.026;2023-02-15T14:40:29;33.63;;;19.97;;
18387;SDS011;9320;50.256;19.026;2023-02-15T14:43:22;34.17;;;18.87;;
18387;SDS011;9320;50.256;19.026;2023-02-15T14:46:00;31.57;;;17.63;;
18387;SDS011;9320;50.256;19.026;2023-02-15T14:48:37;27.67;;;16.67;;
18387;SDS011;9320;50.256;19.026;2023-02-15T14:51:09;31.33;;;16.97;;
18387;SDS011;9320;50.256;19.026;2023-02-15T14:53:40;28.20;;;16.93;;
18387;SDS011;9320;50.256;19.026;2023-02-15T14:56:20;27.33;;;15.57;;
18387;SDS011;9320;50.256;19.026;2023-02-15T14:58:56;29.13;;;15.60;;
18387;SDS011;9320;50.256;19.026;2023-02-15T15:01:40;36.00;;;16.70;;
18387;SDS011;9320;50.256;19.026;2023-02-15T15:04:10;32.30;;;17.57;;
18387;SDS011;9320;50.256;19.026;2023-02-15T15:06:56;37.43;;;18.73;;
18387;SDS011;9320;50.256;19.026;2023-02-15T15:09:29;27.87;;;16.87;;
18387;SDS011;9320;50.256;19.026;2023-02-15T15:12:14;34.93;;;16.80;;
18387;SDS011;9320;50.256;19.026;2023-02-15T15:14:58;35.40;;;18.17;;